sensor_id;sensor_type;location;lat;lon;timestamp;P1;durP1;ratioP1;P2;durP2;ratioP2
8327;SDS011;4201;48.754;8.864;2022-11-11T00:01:15;10.70;;;9.03;;
8327;SDS011;4201;48.754;8.864;2022-11-11T00:03:42;13.97;;;9.73;;
8327;SDS011;4201;48.754;8.864;2022-11-11T00:06:09;13.30;;;10.13;;
8327;SDS011;4201;48.754;8.864;2022-11-11T00:08:35;18.27;;;10.30;;
8327;SDS011;4201;48.754;8.864;2022-11-11T00:11:04;26.67;;;15.70;;
8327;SDS011;4201;48.754;8.864;2022-11-11T00:13:31;20.20;;;14.10;;
8327;SDS011;4201;48.754;8.864;2022-11-11T00:16:02;27.30;;;15.87;;
8327;SDS011;4201;48.754;8.864;2022-11-11T00:18:28;23.70;;;16.20;;
8327;SDS011;4201;48.754;8.864;2022-11-11T00:21:12;18.80;;;13.80;;
8327;SDS011;4201;48.754;8.864;2022-11-11T00:23:56;24.33;;;14.33;;
8327;SDS011;4201;48.754;8.864;2022-11-11T00:26:50;19.20;;;13.70;;
8327;SDS011;4201;48.754;8.864;2022-11-11T00:29:16;22.70;;;15.83;;
8327;SDS011;4201;48.754;8.864;2022-11-11T00:31:45;30.23;;;16.87;;
8327;SDS011;4201;48.754;8.864;2022-11-11T00:34:25;25.67;;;14.53;;
8327;SDS011;4201;48.754;8.864;2022-11-11T00:36:51;15.70;;;13.23;;
8327;SDS011;4201;48.754;8.864;2022-11-11T00:39:16;9.53;;;7.40;;
8327;SDS011;4201;48.754;8.864;2022-11-11T00:41:43;9.80;;;6.93;;
8327;SDS011;4201;48.754;8.864;2022-11-11T00:44:10;11.70;;;8.57;;
8327;SDS011;4201;48.754;8.864;2022-11-11T00:46:37;13.53;;;8.77;;
8327;SDS011;4201;48.754;8.864;2022-11-11T00:49:32;11.73;;;8.43;;
8327;SDS011;4201;48.754;8.864;2022-11-11T00:52:16;13.50;;;8.33;;
8327;SDS011;4201;48.754;8.864;2022-11-11T00:54:42;10.00;;;8.27;;
8327;SDS011;4201;48.754;8.864;2022-11-11T00:57:08;11.43;;;8.00;;
8327;SDS011;4201;48.754;8.864;2022-11-11T00:59:37;14.90;;;9.13;;
8327;SDS011;4201;48.754;8.864;2022-11-11T01:02:04;10.40;;;8.83;;
8327;SDS011;4201;48.754;8.864;2022-11-11T01:04:30;11.87;;;8.10;;
8327;SDS011;4201;48.754;8.864;2022-11-11T01:06:56;11.20;;;8.10;;
8327;SDS011;4201;48.754;8.864;2022-11-11T01:09:23;16.43;;;8.53;;
8327;SDS011;4201;48.754;8.864;2022-11-11T01:11:52;14.30;;;8.43;;
8327;SDS011;4201;48.754;8.864;2022-11-11T01:14:18;14.30;;;9.20;;
8327;SDS011;4201;48.754;8.864;2022-11-11T01:16:46;10.07;;;7.43;;
8327;SDS011;4201;48.754;8.864;2022-11-11T01:19:12;15.63;;;7.57;;
8327;SDS011;4201;48.754;8.864;2022-11-11T01:21:38;11.80;;;7.57;;
8327;SDS011;4201;48.754;8.864;2022-11-11T01:24:04;11.93;;;8.70;;
8327;SDS011;4201;48.754;8.864;2022-11-11T01:26:31;10.97;;;7.17;;
8327;SDS011;4201;48.754;8.864;2022-11-11T01:28:57;12.87;;;7.47;;
8327;SDS011;4201;48.754;8.864;2022-11-11T01:31:24;10.07;;;7.33;;
8327;SDS011;4201;48.754;8.864;2022-11-11T01:33:52;9.27;;;6.50;;
8327;SDS011;4201;48.754;8.864;2022-11-11T01:36:19;10.90;;;7.80;;
8327;SDS011;4201;48.754;8.864;2022-11-11T01:38:47;9.40;;;6.90;;
8327;SDS011;4201;48.754;8.864;2022-11-11T01:41:15;7.23;;;5.90;;
8327;SDS011;4201;48.754;8.864;2022-11-11T01:43:58;13.80;;;6.43;;
8327;SDS011;4201;48.754;8.864;2022-11-11T01:46:29;10.63;;;6.30;;
8327;SDS011;4201;48.754;8.864;2022-11-11T01:49:00;7.87;;;5.53;;
8327;SDS011;4201;48.754;8.864;2022-11-11T01:51:45;10.33;;;5.80;;
8327;SDS011;4201;48.754;8.864;2022-11-11T01:54:15;7.53;;;5.70;;
8327;SDS011;4201;48.754;8.864;2022-11-11T01:56:42;9.87;;;5.37;;
8327;SDS011;4201;48.754;8.864;2022-11-11T01:59:12;10.03;;;5.60;;
8327;SDS011;4201;48.754;8.864;2022-11-11T02:01:42;8.43;;;5.53;;
8327;SDS011;4201;48.754;8.864;2022-11-11T02:04:10;6.03;;;4.70;;
8327;SDS011;4201;48.754;8.864;2022-11-11T02:06:55;10.93;;;6.20;;
8327;SDS011;4201;48.754;8.864;2022-11-11T02:09:22;8.20;;;5.37;;
8327;SDS011;4201;48.754;8.864;2022-11-11T02:11:49;7.60;;;5.47;;
8327;SDS011;4201;48.754;8.864;2022-11-11T02:14:34;9.30;;;7.00;;
8327;SDS011;4201;48.754;8.864;2022-11-11T02:17:07;11.17;;;6.60;;
8327;SDS011;4201;48.754;8.864;2022-11-11T02:19:37;8.20;;;6.33;;
8327;SDS011;4201;48.754;8.864;2022-11-11T02:22:06;9.50;;;6.50;;
8327;SDS011;4201;48.754;8.864;2022-11-11T02:24:35;10.33;;;7.70;;
8327;SDS011;4201;48.754;8.864;2022-11-11T02:27:02;11.40;;;7.50;;
8327;SDS011;4201;48.754;8.864;2022-11-11T02:29:28;10.60;;;7.13;;
8327;SDS011;4201;48.754;8.864;2022-11-11T02:31:55;10.37;;;6.47;;
8327;SDS011;4201;48.754;8.864;2022-11-11T02:34:27;6.60;;;5.17;;
8327;SDS011;4201;48.754;8.864;2022-11-11T02:36:53;9.50;;;5.57;;
8327;SDS011;4201;48.754;8.864;2022-11-11T02:39:19;7.90;;;5.97;;
8327;SDS011;4201;48.754;8.864;2022-11-11T02:41:47;8.30;;;5.80;;
8327;SDS011;4201;48.754;8.864;2022-11-11T02:44:22;9.63;;;5.83;;
8327;SDS011;4201;48.754;8.864;2022-11-11T02:46:49;7.03;;;5.40;;
8327;SDS011;4201;48.754;8.864;2022-11-11T02:49:15;8.53;;;5.53;;
8327;SDS011;4201;48.754;8.864;2022-11-11T02:51:41;7.20;;;5.20;;
8327;SDS011;4201;48.754;8.864;2022-11-11T02:54:08;7.90;;;5.63;;
8327;SDS011;4201;48.754;8.864;2022-11-11T02:56:34;5.77;;;4.90;;
8327;SDS011;4201;48.754;8.864;2022-11-11T02:59:19;7.70;;;5.13;;
8327;SDS011;4201;48.754;8.864;2022-11-11T03:01:46;7.43;;;5.07;;
8327;SDS011;4201;48.754;8.864;2022-11-11T03:04:13;8.73;;;4.80;;
8327;SDS011;4201;48.754;8.864;2022-11-11T03:06:39;9.57;;;5.13;;
8327;SDS011;4201;48.754;8.864;2022-11-11T03:09:05;6.73;;;4.47;;
8327;SDS011;4201;48.754;8.864;2022-11-11T03:11:31;6.27;;;4.43;;
8327;SDS011;4201;48.754;8.864;2022-11-11T03:14:01;9.40;;;5.90;;
8327;SDS011;4201;48.754;8.864;2022-11-11T03:16:29;6.40;;;5.00;;
8327;SDS011;4201;48.754;8.864;2022-11-11T03:19:13;6.93;;;5.20;;
8327;SDS011;4201;48.754;8.864;2022-11-11T03:21:39;9.10;;;5.27;;
8327;SDS011;4201;48.754;8.864;2022-11-11T03:24:05;6.00;;;4.67;;
8327;SDS011;4201;48.754;8.864;2022-11-11T03:26:32;6.77;;;4.43;;
8327;SDS011;4201;48.754;8.864;2022-11-11T03:28:58;7.87;;;5.13;;
8327;SDS011;4201;48.754;8.864;2022-11-11T03:31:24;7.23;;;5.67;;
8327;SDS011;4201;48.754;8.864;2022-11-11T03:33:52;7.07;;;4.63;;
8327;SDS011;4201;48.754;8.864;2022-11-11T03:36:18;8.00;;;4.90;;
8327;SDS011;4201;48.754;8.864;2022-11-11T03:38:44;6.83;;;4.83;;
8327;SDS011;4201;48.754;8.864;2022-11-11T03:41:10;8.73;;;4.80;;
8327;SDS011;4201;48.754;8.864;2022-11-11T03:43:36;6.23;;;4.30;;
8327;SDS011;4201;48.754;8.864;2022-11-11T03:46:03;7.13;;;5.00;;
8327;SDS011;4201;48.754;8.864;2022-11-11T03:48:30;7.50;;;4.70;;
8327;SDS011;4201;48.754;8.864;2022-11-11T03:50:58;13.30;;;8.07;;
8327;SDS011;4201;48.754;8.864;2022-11-11T03:53:24;11.80;;;7.70;;
8327;SDS011;4201;48.754;8.864;2022-11-11T03:55:51;9.60;;;7.23;;
8327;SDS011;4201;48.754;8.864;2022-11-11T03:58:17;10.60;;;6.13;;
8327;SDS011;4201;48.754;8.864;2022-11-11T04:00:44;14.40;;;5.90;;
8327;SDS011;4201;48.754;8.864;2022-11-11T04:03:10;7.07;;;5.27;;
8327;SDS011;4201;48.754;8.864;2022-11-11T04:05:54;7.90;;;6.50;;
8327;SDS011;4201;48.754;8.864;2022-11-11T04:08:42;11.53;;;6.37;;
8327;SDS011;4201;48.754;8.864;2022-11-11T04:11:27;9.23;;;6.30;;
8327;SDS011;4201;48.754;8.864;2022-11-11T04:13:54;14.77;;;5.80;;
8327;SDS011;4201;48.754;8.864;2022-11-11T04:16:39;10.53;;;6.53;;
8327;SDS011;4201;48.754;8.864;2022-11-11T04:19:05;8.63;;;6.03;;
8327;SDS011;4201;48.754;8.864;2022-11-11T04:21:49;9.80;;;6.90;;
8327;SDS011;4201;48.754;8.864;2022-11-11T04:24:17;15.80;;;7.80;;
8327;SDS011;4201;48.754;8.864;2022-11-11T04:27:02;14.47;;;7.30;;
8327;SDS011;4201;48.754;8.864;2022-11-11T04:29:29;9.23;;;7.10;;
8327;SDS011;4201;48.754;8.864;2022-11-11T04:31:55;9.07;;;6.10;;
8327;SDS011;4201;48.754;8.864;2022-11-11T04:34:39;7.83;;;6.33;;
8327;SDS011;4201;48.754;8.864;2022-11-11T04:37:05;8.90;;;5.73;;
8327;SDS011;4201;48.754;8.864;2022-11-11T04:39:33;8.47;;;5.53;;
8327;SDS011;4201;48.754;8.864;2022-11-11T04:42:17;12.30;;;5.83;;
8327;SDS011;4201;48.754;8.864;2022-11-11T04:44:43;11.13;;;5.30;;
8327;SDS011;4201;48.754;8.864;2022-11-11T04:47:27;7.63;;;5.33;;
8327;SDS011;4201;48.754;8.864;2022-11-11T04:49:53;9.33;;;5.10;;
8327;SDS011;4201;48.754;8.864;2022-11-11T04:52:20;6.93;;;5.10;;
8327;SDS011;4201;48.754;8.864;2022-11-11T04:54:54;9.63;;;5.60;;
8327;SDS011;4201;48.754;8.864;2022-11-11T04:57:38;12.60;;;8.50;;
8327;SDS011;4201;48.754;8.864;2022-11-11T05:00:06;11.20;;;6.77;;
8327;SDS011;4201;48.754;8.864;2022-11-11T05:02:33;10.70;;;6.67;;
8327;SDS011;4201;48.754;8.864;2022-11-11T05:05:17;8.83;;;6.30;;
8327;SDS011;4201;48.754;8.864;2022-11-11T05:07:46;11.07;;;6.73;;
8327;SDS011;4201;48.754;8.864;2022-11-11T05:10:31;8.17;;;6.43;;
8327;SDS011;4201;48.754;8.864;2022-11-11T05:13:01;12.50;;;5.80;;
8327;SDS011;4201;48.754;8.864;2022-11-11T05:15:45;13.20;;;6.30;;
8327;SDS011;4201;48.754;8.864;2022-11-11T05:18:32;9.20;;;7.10;;
8327;SDS011;4201;48.754;8.864;2022-11-11T05:21:17;11.40;;;5.80;;
8327;SDS011;4201;48.754;8.864;2022-11-11T05:23:48;8.70;;;6.17;;
8327;SDS011;4201;48.754;8.864;2022-11-11T05:26:33;10.33;;;5.70;;
8327;SDS011;4201;48.754;8.864;2022-11-11T05:29:06;14.87;;;6.00;;
8327;SDS011;4201;48.754;8.864;2022-11-11T05:31:51;11.63;;;7.27;;
8327;SDS011;4201;48.754;8.864;2022-11-11T05:34:24;11.63;;;9.03;;
8327;SDS011;4201;48.754;8.864;2022-11-11T05:36:51;16.73;;;8.73;;
8327;SDS011;4201;48.754;8.864;2022-11-11T05:39:17;10.70;;;7.50;;
8327;SDS011;4201;48.754;8.864;2022-11-11T05:41:44;9.13;;;6.57;;
8327;SDS011;4201;48.754;8.864;2022-11-11T05:44:11;12.10;;;8.40;;
8327;SDS011;4201;48.754;8.864;2022-11-11T05:46:38;10.63;;;7.50;;
8327;SDS011;4201;48.754;8.864;2022-11-11T05:49:05;10.90;;;7.30;;
8327;SDS011;4201;48.754;8.864;2022-11-11T05:51:40;19.20;;;9.60;;
8327;SDS011;4201;48.754;8.864;2022-11-11T05:54:07;18.70;;;10.43;;
8327;SDS011;4201;48.754;8.864;2022-11-11T05:56:33;14.73;;;9.27;;
8327;SDS011;4201;48.754;8.864;2022-11-11T05:59:00;13.60;;;8.43;;
8327;SDS011;4201;48.754;8.864;2022-11-11T06:01:27;18.83;;;7.80;;
8327;SDS011;4201;48.754;8.864;2022-11-11T06:03:53;14.10;;;7.17;;
8327;SDS011;4201;48.754;8.864;2022-11-11T06:06:19;11.43;;;7.63;;
8327;SDS011;4201;48.754;8.864;2022-11-11T06:08:46;12.60;;;8.37;;
8327;SDS011;4201;48.754;8.864;2022-11-11T06:11:12;11.97;;;8.17;;
8327;SDS011;4201;48.754;8.864;2022-11-11T06:13:38;14.97;;;8.07;;
8327;SDS011;4201;48.754;8.864;2022-11-11T06:16:06;10.60;;;7.53;;
8327;SDS011;4201;48.754;8.864;2022-11-11T06:18:33;17.67;;;7.83;;
8327;SDS011;4201;48.754;8.864;2022-11-11T06:20:59;11.57;;;6.50;;
8327;SDS011;4201;48.754;8.864;2022-11-11T06:23:26;11.33;;;6.87;;
8327;SDS011;4201;48.754;8.864;2022-11-11T06:25:53;12.13;;;6.40;;
8327;SDS011;4201;48.754;8.864;2022-11-11T06:28:38;12.77;;;7.30;;
8327;SDS011;4201;48.754;8.864;2022-11-11T06:31:06;11.10;;;7.30;;
8327;SDS011;4201;48.754;8.864;2022-11-11T06:33:32;6.97;;;5.03;;
8327;SDS011;4201;48.754;8.864;2022-11-11T06:35:59;16.10;;;6.17;;
8327;SDS011;4201;48.754;8.864;2022-11-11T06:38:25;7.67;;;5.67;;
8327;SDS011;4201;48.754;8.864;2022-11-11T06:40:51;9.43;;;5.90;;
8327;SDS011;4201;48.754;8.864;2022-11-11T06:43:18;10.87;;;6.30;;
8327;SDS011;4201;48.754;8.864;2022-11-11T06:45:44;9.17;;;6.00;;
8327;SDS011;4201;48.754;8.864;2022-11-11T06:48:12;9.97;;;6.60;;
8327;SDS011;4201;48.754;8.864;2022-11-11T06:50:38;8.93;;;5.87;;
8327;SDS011;4201;48.754;8.864;2022-11-11T06:53:05;8.47;;;6.33;;
8327;SDS011;4201;48.754;8.864;2022-11-11T06:55:31;9.80;;;5.47;;
8327;SDS011;4201;48.754;8.864;2022-11-11T06:58:03;6.23;;;5.33;;
8327;SDS011;4201;48.754;8.864;2022-11-11T07:00:29;8.70;;;5.67;;
8327;SDS011;4201;48.754;8.864;2022-11-11T07:02:55;10.73;;;6.37;;
8327;SDS011;4201;48.754;8.864;2022-11-11T07:05:23;8.90;;;5.60;;
8327;SDS011;4201;48.754;8.864;2022-11-11T07:07:49;11.47;;;7.30;;
8327;SDS011;4201;48.754;8.864;2022-11-11T07:10:15;14.93;;;7.33;;
8327;SDS011;4201;48.754;8.864;2022-11-11T07:12:42;13.93;;;8.53;;
8327;SDS011;4201;48.754;8.864;2022-11-11T07:15:12;11.37;;;8.57;;
8327;SDS011;4201;48.754;8.864;2022-11-11T07:17:38;9.87;;;7.67;;
8327;SDS011;4201;48.754;8.864;2022-11-11T07:20:05;10.80;;;7.67;;
8327;SDS011;4201;48.754;8.864;2022-11-11T07:22:35;11.23;;;8.13;;
8327;SDS011;4201;48.754;8.864;2022-11-11T07:25:02;13.33;;;8.13;;
8327;SDS011;4201;48.754;8.864;2022-11-11T07:27:28;12.20;;;7.87;;
8327;SDS011;4201;48.754;8.864;2022-11-11T07:29:54;8.23;;;6.73;;
8327;SDS011;4201;48.754;8.864;2022-11-11T07:32:21;13.60;;;6.10;;
8327;SDS011;4201;48.754;8.864;2022-11-11T07:34:47;10.10;;;4.10;;
8327;SDS011;4201;48.754;8.864;2022-11-11T07:37:14;8.80;;;4.30;;
8327;SDS011;4201;48.754;8.864;2022-11-11T07:39:41;8.40;;;4.60;;
8327;SDS011;4201;48.754;8.864;2022-11-11T07:42:08;14.23;;;5.93;;
8327;SDS011;4201;48.754;8.864;2022-11-11T07:44:34;8.87;;;5.43;;
8327;SDS011;4201;48.754;8.864;2022-11-11T07:47:00;9.30;;;5.70;;
8327;SDS011;4201;48.754;8.864;2022-11-11T07:49:27;8.23;;;5.70;;
8327;SDS011;4201;48.754;8.864;2022-11-11T07:51:53;7.13;;;5.60;;
8327;SDS011;4201;48.754;8.864;2022-11-11T07:54:19;11.90;;;6.23;;
8327;SDS011;4201;48.754;8.864;2022-11-11T07:56:47;12.40;;;6.77;;
8327;SDS011;4201;48.754;8.864;2022-11-11T07:59:13;9.47;;;6.70;;
8327;SDS011;4201;48.754;8.864;2022-11-11T08:01:39;10.37;;;6.57;;
8327;SDS011;4201;48.754;8.864;2022-11-11T08:04:05;10.77;;;7.27;;
8327;SDS011;4201;48.754;8.864;2022-11-11T08:06:32;10.77;;;7.13;;
8327;SDS011;4201;48.754;8.864;2022-11-11T08:08:58;9.87;;;6.63;;
8327;SDS011;4201;48.754;8.864;2022-11-11T08:11:24;11.57;;;6.30;;
8327;SDS011;4201;48.754;8.864;2022-11-11T08:14:06;13.60;;;6.17;;
8327;SDS011;4201;48.754;8.864;2022-11-11T08:16:32;12.43;;;6.70;;
8327;SDS011;4201;48.754;8.864;2022-11-11T08:18:59;8.80;;;6.87;;
8327;SDS011;4201;48.754;8.864;2022-11-11T08:21:25;17.60;;;8.73;;
8327;SDS011;4201;48.754;8.864;2022-11-11T08:23:52;11.03;;;7.83;;
8327;SDS011;4201;48.754;8.864;2022-11-11T08:26:18;13.77;;;8.27;;
8327;SDS011;4201;48.754;8.864;2022-11-11T08:28:46;15.40;;;8.90;;
8327;SDS011;4201;48.754;8.864;2022-11-11T08:31:14;15.57;;;10.30;;
8327;SDS011;4201;48.754;8.864;2022-11-11T08:33:40;15.03;;;10.47;;
8327;SDS011;4201;48.754;8.864;2022-11-11T08:36:06;16.57;;;9.67;;
8327;SDS011;4201;48.754;8.864;2022-11-11T08:38:35;12.20;;;7.63;;
8327;SDS011;4201;48.754;8.864;2022-11-11T08:41:02;11.20;;;7.67;;
8327;SDS011;4201;48.754;8.864;2022-11-11T08:43:29;10.47;;;7.00;;
8327;SDS011;4201;48.754;8.864;2022-11-11T08:45:57;12.03;;;6.70;;
8327;SDS011;4201;48.754;8.864;2022-11-11T08:48:25;11.63;;;7.10;;
8327;SDS011;4201;48.754;8.864;2022-11-11T08:50:51;10.60;;;7.30;;
8327;SDS011;4201;48.754;8.864;2022-11-11T08:53:18;9.13;;;7.50;;
8327;SDS011;4201;48.754;8.864;2022-11-11T08:55:45;9.67;;;6.43;;
8327;SDS011;4201;48.754;8.864;2022-11-11T08:58:11;8.80;;;7.17;;
8327;SDS011;4201;48.754;8.864;2022-11-11T09:00:38;8.60;;;6.87;;
8327;SDS011;4201;48.754;8.864;2022-11-11T09:03:05;12.20;;;7.27;;
8327;SDS011;4201;48.754;8.864;2022-11-11T09:05:33;12.17;;;7.00;;
8327;SDS011;4201;48.754;8.864;2022-11-11T09:07:59;8.97;;;6.37;;
8327;SDS011;4201;48.754;8.864;2022-11-11T09:10:26;11.77;;;7.20;;
8327;SDS011;4201;48.754;8.864;2022-11-11T09:12:54;15.33;;;8.20;;
8327;SDS011;4201;48.754;8.864;2022-11-11T09:15:20;10.40;;;7.87;;
8327;SDS011;4201;48.754;8.864;2022-11-11T09:17:46;9.53;;;7.93;;
8327;SDS011;4201;48.754;8.864;2022-11-11T09:20:13;10.23;;;7.40;;
8327;SDS011;4201;48.754;8.864;2022-11-11T09:22:42;12.70;;;7.67;;
8327;SDS011;4201;48.754;8.864;2022-11-11T09:25:09;16.20;;;7.80;;
8327;SDS011;4201;48.754;8.864;2022-11-11T09:27:35;18.00;;;8.47;;
8327;SDS011;4201;48.754;8.864;2022-11-11T09:30:01;12.30;;;6.90;;
8327;SDS011;4201;48.754;8.864;2022-11-11T09:32:28;14.10;;;7.40;;
8327;SDS011;4201;48.754;8.864;2022-11-11T09:34:54;13.37;;;7.57;;
8327;SDS011;4201;48.754;8.864;2022-11-11T09:37:20;15.13;;;8.07;;
8327;SDS011;4201;48.754;8.864;2022-11-11T09:39:48;14.03;;;8.60;;
8327;SDS011;4201;48.754;8.864;2022-11-11T09:42:16;11.47;;;6.00;;
8327;SDS011;4201;48.754;8.864;2022-11-11T09:44:54;11.40;;;6.20;;
8327;SDS011;4201;48.754;8.864;2022-11-11T09:49:57;16.47;;;7.70;;
8327;SDS011;4201;48.754;8.864;2022-11-11T09:52:26;9.33;;;6.87;;
8327;SDS011;4201;48.754;8.864;2022-11-11T09:54:56;11.87;;;6.50;;
8327;SDS011;4201;48.754;8.864;2022-11-11T09:57:28;9.13;;;6.03;;
8327;SDS011;4201;48.754;8.864;2022-11-11T09:59:57;10.90;;;6.10;;
8327;SDS011;4201;48.754;8.864;2022-11-11T10:02:28;12.00;;;6.70;;
8327;SDS011;4201;48.754;8.864;2022-11-11T10:04:56;10.20;;;7.17;;
8327;SDS011;4201;48.754;8.864;2022-11-11T10:07:27;8.20;;;6.03;;
8327;SDS011;4201;48.754;8.864;2022-11-11T10:09:59;7.40;;;5.40;;
8327;SDS011;4201;48.754;8.864;2022-11-11T10:12:32;8.43;;;5.83;;
8327;SDS011;4201;48.754;8.864;2022-11-11T10:15:00;9.73;;;5.00;;
8327;SDS011;4201;48.754;8.864;2022-11-11T10:17:30;6.70;;;4.67;;
8327;SDS011;4201;48.754;8.864;2022-11-11T10:20:01;9.33;;;6.97;;
8327;SDS011;4201;48.754;8.864;2022-11-11T10:22:30;10.53;;;5.50;;
8327;SDS011;4201;48.754;8.864;2022-11-11T10:25:05;6.80;;;4.63;;
8327;SDS011;4201;48.754;8.864;2022-11-11T10:27:32;6.27;;;4.90;;
8327;SDS011;4201;48.754;8.864;2022-11-11T10:29:59;7.63;;;5.00;;
8327;SDS011;4201;48.754;8.864;2022-11-11T10:32:27;7.87;;;4.60;;
8327;SDS011;4201;48.754;8.864;2022-11-11T10:34:54;9.87;;;5.70;;
8327;SDS011;4201;48.754;8.864;2022-11-11T10:37:26;8.87;;;4.63;;
8327;SDS011;4201;48.754;8.864;2022-11-11T10:39:57;10.50;;;5.47;;
8327;SDS011;4201;48.754;8.864;2022-11-11T10:42:27;7.87;;;4.93;;
8327;SDS011;4201;48.754;8.864;2022-11-11T10:44:53;8.60;;;5.63;;
8327;SDS011;4201;48.754;8.864;2022-11-11T10:47:23;8.60;;;4.60;;
8327;SDS011;4201;48.754;8.864;2022-11-11T10:49:55;11.50;;;5.10;;
8327;SDS011;4201;48.754;8.864;2022-11-11T10:52:23;10.90;;;6.13;;
8327;SDS011;4201;48.754;8.864;2022-11-11T10:54:51;11.27;;;6.03;;
8327;SDS011;4201;48.754;8.864;2022-11-11T10:57:21;13.90;;;5.53;;
8327;SDS011;4201;48.754;8.864;2022-11-11T10:59:50;9.57;;;5.80;;
8327;SDS011;4201;48.754;8.864;2022-11-11T11:02:20;7.17;;;5.83;;
8327;SDS011;4201;48.754;8.864;2022-11-11T11:04:47;9.87;;;6.50;;
8327;SDS011;4201;48.754;8.864;2022-11-11T11:07:17;10.70;;;6.60;;
8327;SDS011;4201;48.754;8.864;2022-11-11T11:09:47;8.00;;;5.20;;
8327;SDS011;4201;48.754;8.864;2022-11-11T11:12:14;6.80;;;5.33;;
8327;SDS011;4201;48.754;8.864;2022-11-11T11:14:42;10.13;;;5.63;;
8327;SDS011;4201;48.754;8.864;2022-11-11T11:17:12;8.37;;;5.70;;
8327;SDS011;4201;48.754;8.864;2022-11-11T11:19:40;10.00;;;5.47;;
8327;SDS011;4201;48.754;8.864;2022-11-11T11:22:06;6.53;;;4.90;;
8327;SDS011;4201;48.754;8.864;2022-11-11T11:24:33;7.43;;;4.53;;
8327;SDS011;4201;48.754;8.864;2022-11-11T11:27:02;6.90;;;4.43;;
8327;SDS011;4201;48.754;8.864;2022-11-11T11:29:30;6.60;;;4.10;;
8327;SDS011;4201;48.754;8.864;2022-11-11T11:32:11;7.93;;;4.70;;
8327;SDS011;4201;48.754;8.864;2022-11-11T11:34:44;6.43;;;4.60;;
8327;SDS011;4201;48.754;8.864;2022-11-11T11:37:11;12.23;;;4.17;;
8327;SDS011;4201;48.754;8.864;2022-11-11T11:39:38;8.60;;;4.43;;
8327;SDS011;4201;48.754;8.864;2022-11-11T11:42:04;7.97;;;4.70;;
8327;SDS011;4201;48.754;8.864;2022-11-11T11:44:32;10.83;;;5.37;;
8327;SDS011;4201;48.754;8.864;2022-11-11T11:47:04;6.87;;;4.87;;
8327;SDS011;4201;48.754;8.864;2022-11-11T11:49:40;6.80;;;4.50;;
8327;SDS011;4201;48.754;8.864;2022-11-11T11:52:10;8.43;;;4.40;;
8327;SDS011;4201;48.754;8.864;2022-11-11T11:54:46;7.37;;;4.53;;
8327;SDS011;4201;48.754;8.864;2022-11-11T11:57:17;7.07;;;5.50;;
8327;SDS011;4201;48.754;8.864;2022-11-11T11:59:46;10.20;;;4.90;;
8327;SDS011;4201;48.754;8.864;2022-11-11T12:02:20;8.20;;;4.73;;
8327;SDS011;4201;48.754;8.864;2022-11-11T12:07:48;6.50;;;4.53;;
8327;SDS011;4201;48.754;8.864;2022-11-11T12:10:29;11.80;;;5.40;;
8327;SDS011;4201;48.754;8.864;2022-11-11T12:12:57;9.00;;;4.67;;
8327;SDS011;4201;48.754;8.864;2022-11-11T12:15:27;14.97;;;5.60;;
8327;SDS011;4201;48.754;8.864;2022-11-11T12:18:00;11.40;;;6.73;;
8327;SDS011;4201;48.754;8.864;2022-11-11T12:20:33;13.50;;;6.50;;
8327;SDS011;4201;48.754;8.864;2022-11-11T12:23:11;15.37;;;8.20;;
8327;SDS011;4201;48.754;8.864;2022-11-11T12:25:45;10.83;;;6.70;;
8327;SDS011;4201;48.754;8.864;2022-11-11T12:28:17;8.37;;;5.80;;
8327;SDS011;4201;48.754;8.864;2022-11-11T12:30:47;13.80;;;8.03;;
8327;SDS011;4201;48.754;8.864;2022-11-11T12:33:37;24.90;;;14.57;;
8327;SDS011;4201;48.754;8.864;2022-11-11T12:36:07;9.03;;;5.83;;
8327;SDS011;4201;48.754;8.864;2022-11-11T12:38:49;9.07;;;5.87;;
8327;SDS011;4201;48.754;8.864;2022-11-11T12:41:19;11.07;;;5.87;;
8327;SDS011;4201;48.754;8.864;2022-11-11T12:43:49;10.80;;;5.00;;
8327;SDS011;4201;48.754;8.864;2022-11-11T12:46:20;31.07;;;11.20;;
8327;SDS011;4201;48.754;8.864;2022-11-11T12:48:53;9.03;;;4.47;;
8327;SDS011;4201;48.754;8.864;2022-11-11T12:51:26;5.80;;;4.03;;
8327;SDS011;4201;48.754;8.864;2022-11-11T12:53:59;11.33;;;6.87;;
8327;SDS011;4201;48.754;8.864;2022-11-11T12:56:30;5.07;;;4.00;;
8327;SDS011;4201;48.754;8.864;2022-11-11T12:58:59;14.23;;;6.03;;
8327;SDS011;4201;48.754;8.864;2022-11-11T13:01:31;13.23;;;4.37;;
8327;SDS011;4201;48.754;8.864;2022-11-11T13:04:08;6.80;;;3.43;;
8327;SDS011;4201;48.754;8.864;2022-11-11T13:06:47;6.53;;;4.07;;
8327;SDS011;4201;48.754;8.864;2022-11-11T13:09:24;5.77;;;3.43;;
8327;SDS011;4201;48.754;8.864;2022-11-11T13:11:55;5.83;;;3.20;;
8327;SDS011;4201;48.754;8.864;2022-11-11T13:14:29;9.37;;;4.30;;
8327;SDS011;4201;48.754;8.864;2022-11-11T13:16:59;10.10;;;3.57;;
8327;SDS011;4201;48.754;8.864;2022-11-11T13:19:28;7.00;;;3.57;;
8327;SDS011;4201;48.754;8.864;2022-11-11T13:21:57;6.70;;;4.13;;
8327;SDS011;4201;48.754;8.864;2022-11-11T13:24:27;11.27;;;4.03;;
8327;SDS011;4201;48.754;8.864;2022-11-11T13:26:56;8.53;;;3.60;;
8327;SDS011;4201;48.754;8.864;2022-11-11T13:29:42;6.13;;;3.70;;
8327;SDS011;4201;48.754;8.864;2022-11-11T13:32:12;8.00;;;4.57;;
8327;SDS011;4201;48.754;8.864;2022-11-11T13:34:39;8.90;;;4.80;;
8327;SDS011;4201;48.754;8.864;2022-11-11T13:37:06;7.37;;;4.30;;
8327;SDS011;4201;48.754;8.864;2022-11-11T13:39:36;5.73;;;3.50;;
8327;SDS011;4201;48.754;8.864;2022-11-11T13:42:03;7.00;;;2.93;;
8327;SDS011;4201;48.754;8.864;2022-11-11T13:44:31;8.40;;;4.10;;
8327;SDS011;4201;48.754;8.864;2022-11-11T13:46:59;7.03;;;3.67;;
8327;SDS011;4201;48.754;8.864;2022-11-11T13:49:28;6.70;;;3.60;;
8327;SDS011;4201;48.754;8.864;2022-11-11T13:51:56;24.33;;;6.27;;
8327;SDS011;4201;48.754;8.864;2022-11-11T13:54:23;17.33;;;5.30;;
8327;SDS011;4201;48.754;8.864;2022-11-11T13:56:52;8.73;;;5.20;;
8327;SDS011;4201;48.754;8.864;2022-11-11T13:59:19;6.50;;;4.30;;
8327;SDS011;4201;48.754;8.864;2022-11-11T14:01:47;8.90;;;4.90;;
8327;SDS011;4201;48.754;8.864;2022-11-11T14:04:41;8.50;;;4.90;;
8327;SDS011;4201;48.754;8.864;2022-11-11T14:07:47;8.53;;;5.20;;
8327;SDS011;4201;48.754;8.864;2022-11-11T14:12:55;7.33;;;4.40;;
8327;SDS011;4201;48.754;8.864;2022-11-11T14:15:35;8.07;;;4.93;;
8327;SDS011;4201;48.754;8.864;2022-11-11T14:18:03;5.90;;;3.53;;
8327;SDS011;4201;48.754;8.864;2022-11-11T14:20:36;8.90;;;4.83;;
8327;SDS011;4201;48.754;8.864;2022-11-11T14:25:49;8.90;;;4.87;;
8327;SDS011;4201;48.754;8.864;2022-11-11T14:28:19;7.83;;;4.50;;
8327;SDS011;4201;48.754;8.864;2022-11-11T14:30:47;10.57;;;4.80;;
8327;SDS011;4201;48.754;8.864;2022-11-11T14:33:15;9.10;;;5.10;;
8327;SDS011;4201;48.754;8.864;2022-11-11T14:35:46;11.63;;;6.83;;
8327;SDS011;4201;48.754;8.864;2022-11-11T14:43:45;10.30;;;6.27;;
8327;SDS011;4201;48.754;8.864;2022-11-11T14:46:12;11.00;;;5.10;;
8327;SDS011;4201;48.754;8.864;2022-11-11T14:48:58;6.77;;;4.20;;
8327;SDS011;4201;48.754;8.864;2022-11-11T14:54:15;8.73;;;3.97;;
8327;SDS011;4201;48.754;8.864;2022-11-11T14:56:42;7.10;;;3.67;;
8327;SDS011;4201;48.754;8.864;2022-11-11T14:59:10;11.00;;;5.00;;
8327;SDS011;4201;48.754;8.864;2022-11-11T15:01:38;7.37;;;4.50;;
8327;SDS011;4201;48.754;8.864;2022-11-11T15:04:05;8.10;;;5.37;;
8327;SDS011;4201;48.754;8.864;2022-11-11T15:06:32;10.80;;;5.17;;
8327;SDS011;4201;48.754;8.864;2022-11-11T15:09:00;9.97;;;4.03;;
8327;SDS011;4201;48.754;8.864;2022-11-11T15:11:29;11.70;;;5.33;;
8327;SDS011;4201;48.754;8.864;2022-11-11T15:14:21;16.70;;;9.63;;
8327;SDS011;4201;48.754;8.864;2022-11-11T15:16:52;47.33;;;30.80;;
8327;SDS011;4201;48.754;8.864;2022-11-11T15:19:27;14.23;;;10.20;;
8327;SDS011;4201;48.754;8.864;2022-11-11T15:22:00;13.47;;;9.70;;
8327;SDS011;4201;48.754;8.864;2022-11-11T15:24:31;16.43;;;11.87;;
8327;SDS011;4201;48.754;8.864;2022-11-11T15:27:01;11.00;;;7.33;;
8327;SDS011;4201;48.754;8.864;2022-11-11T15:29:48;14.77;;;6.23;;
8327;SDS011;4201;48.754;8.864;2022-11-11T15:32:19;25.07;;;12.00;;
8327;SDS011;4201;48.754;8.864;2022-11-11T15:34:50;26.70;;;17.60;;
8327;SDS011;4201;48.754;8.864;2022-11-11T15:37:20;27.90;;;17.33;;
8327;SDS011;4201;48.754;8.864;2022-11-11T15:39:48;12.60;;;8.43;;
8327;SDS011;4201;48.754;8.864;2022-11-11T15:42:17;142.13;;;95.13;;
8327;SDS011;4201;48.754;8.864;2022-11-11T15:44:47;168.80;;;120.27;;